Time;durP1;ratioP1;P1;durP2;ratioP2;P2;SDS_P1;SDS_P2;PMS_P1;PMS_P2;Temp;Humidity;BMP_temperature;BMP_pressure;BME280_temperature;BME280_humidity;BME280_pressure;Samples;Min_cycle;Max_cycle;Signal;HPM_P1;HPM_P2
2022/04/05 00:00:19;;;;;;;4.78;4.15;;;;;;;6.35;97.53;98650.72;4990129;28;20038;-65
2022/04/05 00:02:45;;;;;;;6.50;4.68;;;;;;;6.38;97.86;98653.22;4990550;28;20043;-65
2022/04/05 00:05:10;;;;;;;5.57;4.35;;;;;;;6.43;98.01;98653.84;4993124;28;20034;-66
2022/04/05 00:07:36;;;;;;;5.82;5.07;;;;;;;6.59;97.41;98652.09;4992742;28;20491;-66
2022/04/05 00:10:02;;;;;;;5.90;4.80;;;;;;;6.62;96.88;98649.34;4990356;28;20098;-67
2022/04/05 00:12:27;;;;;;;6.82;5.05;;;;;;;6.89;95.95;98648.81;4990734;28;20046;-66
2022/04/05 00:14:53;;;;;;;5.75;4.97;;;;;;;6.93;95.03;98644.28;5001098;28;20082;-66
2022/04/05 00:17:19;;;;;;;5.45;4.50;;;;;;;6.98;95.25;98645.72;5013209;28;20466;-66
2022/04/05 00:19:44;;;;;;;6.32;4.93;;;;;;;7.18;95.19;98646.44;5012905;28;20097;-68
2022/04/05 00:22:10;;;;;;;6.28;5.55;;;;;;;7.32;94.30;98655.25;5011936;28;20033;-66
2022/04/05 00:24:35;;;;;;;6.93;6.22;;;;;;;7.43;93.94;98645.94;5012826;28;20040;-66
2022/04/05 00:27:00;;;;;;;7.38;5.38;;;;;;;7.37;95.85;98646.31;5012824;28;20030;-67
2022/04/05 00:29:26;;;;;;;6.32;5.55;;;;;;;7.11;96.23;98635.44;4995372;28;20034;-66
2022/04/05 00:31:52;;;;;;;7.18;6.15;;;;;;;7.08;97.40;98635.59;4991308;28;20046;-68
2022/04/05 00:34:18;;;;;;;5.80;4.97;;;;;;;7.13;97.81;98627.50;4993057;28;20037;-68
2022/04/05 00:36:44;;;;;;;7.05;4.88;;;;;;;7.29;97.45;98638.84;4995017;28;20042;-67
2022/04/05 00:39:09;;;;;;;6.90;5.93;;;;;;;7.37;97.01;98641.06;5013651;28;20053;-66
2022/04/05 00:41:35;;;;;;;6.28;5.50;;;;;;;7.32;97.04;98633.44;5012046;28;20100;-66
2022/04/05 00:44:00;;;;;;;7.45;6.60;;;;;;;7.37;97.04;98634.03;5012523;28;20034;-68
2022/04/05 00:46:25;;;;;;;7.55;6.85;;;;;;;7.41;97.43;98643.44;5012937;28;20120;-68
2022/04/05 00:48:55;;;;;;;6.97;6.13;;;;;;;7.47;96.79;98648.31;4999139;28;20037;-67
2022/04/05 00:51:23;;;;;;;9.15;6.40;;;;;;;7.45;97.06;98639.69;4997461;28;20080;-68
2022/04/05 00:53:51;;;;;;;7.30;6.43;;;;;;;7.50;97.23;98632.41;5013220;28;20038;-68
2022/04/05 00:56:19;;;;;;;7.57;6.78;;;;;;;7.53;97.00;98637.50;4994733;28;20121;-67
2022/04/05 00:58:47;;;;;;;8.52;6.70;;;;;;;7.54;97.58;98638.34;5000377;28;20129;-68
2022/04/05 01:01:16;;;;;;;8.73;7.38;;;;;;;7.52;97.64;98635.81;4985147;28;20501;-68
2022/04/05 01:03:48;;;;;;;7.18;6.10;;;;;;;7.53;97.46;98657.63;4992519;28;20117;-68
2022/04/05 01:06:16;;;;;;;7.55;6.30;;;;;;;7.49;98.06;98629.91;4992656;28;20034;-68
2022/04/05 01:08:43;;;;;;;6.85;5.65;;;;;;;7.55;98.26;98639.19;4992810;28;20069;-68
2022/04/05 01:11:09;;;;;;;7.85;6.63;;;;;;;7.65;97.48;98643.00;4991238;28;20034;-68
2022/04/05 01:13:35;;;;;;;7.65;6.75;;;;;;;7.58;97.93;98639.03;4992563;28;20451;-68
2022/04/05 01:16:00;;;;;;;11.23;8.23;;;;;;;7.66;97.98;98637.69;4991287;28;20145;-67
2022/04/05 01:18:25;;;;;;;8.07;7.28;;;;;;;7.76;97.51;98627.50;4992514;28;20046;-67
2022/04/05 01:20:51;;;;;;;8.68;7.63;;;;;;;7.53;98.85;98636.66;4992605;28;20038;-68
2022/04/05 01:23:21;;;;;;;10.68;8.70;;;;;;;7.59;99.31;98632.84;4992133;28;20491;-68
2022/04/05 01:25:47;;;;;;;8.38;7.30;;;;;;;7.61;99.94;98633.63;4991742;28;20042;-67
2022/04/05 01:28:13;;;;;;;9.35;8.35;;;;;;;7.65;99.21;98635.97;4992227;28;20034;-68
2022/04/05 01:30:38;;;;;;;9.40;8.40;;;;;;;7.64;99.46;98636.91;4992217;28;20386;-69
2022/04/05 01:33:04;;;;;;;10.48;9.40;;;;;;;7.66;99.40;98642.09;4991761;28;20501;-69
2022/04/05 01:35:29;;;;;;;10.38;9.27;;;;;;;7.63;100.00;98635.22;4992620;28;20093;-68
2022/04/05 01:37:54;;;;;;;9.80;8.45;;;;;;;7.69;100.00;98636.66;4992435;28;20034;-68
2022/04/05 01:40:20;;;;;;;10.23;8.43;;;;;;;7.72;100.00;98642.56;4991926;28;20037;-68
2022/04/05 01:42:45;;;;;;;18.35;10.65;;;;;;;7.72;100.00;98620.75;4991698;28;20157;-68
2022/04/05 01:45:10;;;;;;;12.27;10.43;;;;;;;7.76;100.00;98626.69;4992109;28;20034;-68
2022/04/05 01:47:38;;;;;;;11.95;10.75;;;;;;;7.80;100.00;98628.16;4990643;28;20039;-68
2022/04/05 01:50:04;;;;;;;11.75;10.50;;;;;;;7.80;100.00;98628.16;4991847;28;20034;-68
2022/04/05 01:52:30;;;;;;;14.80;10.30;;;;;;;7.85;99.80;98626.13;4991393;28;20525;-69
2022/04/05 01:54:55;;;;;;;13.68;11.40;;;;;;;7.85;100.00;98618.25;4991689;28;20042;-68
2022/04/05 01:57:20;;;;;;;12.65;11.02;;;;;;;7.86;100.00;98612.09;4991423;28;20546;-68
2022/04/05 01:59:46;;;;;;;15.48;12.45;;;;;;;7.86;100.00;98623.44;4991655;28;20038;-68
2022/04/05 02:02:12;;;;;;;17.33;13.25;;;;;;;7.87;100.00;98613.78;4991332;28;20125;-68
2022/04/05 02:04:38;;;;;;;14.35;12.48;;;;;;;7.90;100.00;98611.84;4993104;28;20034;-68
2022/04/05 02:07:11;;;;;;;13.43;11.55;;;;;;;7.92;100.00;98612.56;4992333;28;20073;-68
2022/04/05 02:09:36;;;;;;;18.08;13.95;;;;;;;7.93;100.00;98619.53;4992754;28;20093;-68
2022/04/05 02:12:02;;;;;;;13.38;11.52;;;;;;;7.95;100.00;98629.94;4991502;28;20070;-68
2022/04/05 02:14:28;;;;;;;13.55;10.55;;;;;;;7.98;100.00;98621.06;4991722;28;20038;-68
2022/04/05 02:16:53;;;;;;;11.45;10.05;;;;;;;7.97;100.00;98620.19;5004906;28;20038;-68
2022/04/05 02:19:19;;;;;;;12.05;10.85;;;;;;;8.00;100.00;98616.53;5001004;28;20127;-67
2022/04/05 02:21:44;;;;;;;11.98;10.70;;;;;;;8.01;100.00;98616.47;5009900;28;20113;-68
2022/04/05 02:24:09;;;;;;;11.70;10.48;;;;;;;8.03;100.00;98625.09;5011033;28;20533;-68
2022/04/05 02:26:34;;;;;;;11.48;10.20;;;;;;;8.05;100.00;98612.75;4991111;28;20033;-68
2022/04/05 02:29:00;;;;;;;12.50;11.07;;;;;;;8.07;100.00;98613.50;4990818;28;20117;-67
2022/04/05 02:31:25;;;;;;;14.52;11.38;;;;;;;8.10;100.00;98622.97;4990444;28;20784;-68
2022/04/05 02:33:51;;;;;;;15.80;12.38;;;;;;;8.12;100.00;98621.06;4975542;28;20030;-67
2022/04/05 02:36:16;;;;;;;14.85;11.73;;;;;;;8.14;100.00;98611.34;5012851;28;20040;-68
2022/04/05 02:38:42;;;;;;;14.77;11.48;;;;;;;8.15;100.00;98619.13;5011774;28;20022;-69
2022/04/05 02:41:07;;;;;;;12.68;11.10;;;;;;;8.17;100.00;98621.66;5009113;28;20120;-68
2022/04/05 02:43:34;;;;;;;13.50;11.95;;;;;;;8.19;100.00;98614.53;5010382;28;20117;-67
2022/04/05 02:45:59;;;;;;;14.93;12.43;;;;;;;8.21;100.00;98612.69;5010349;28;20064;-69
2022/04/05 02:48:25;;;;;;;12.00;10.73;;;;;;;8.25;100.00;98611.56;5010330;28;20493;-68
2022/04/05 02:50:51;;;;;;;13.60;11.05;;;;;;;8.28;100.00;98618.44;5010174;28;20044;-68
2022/04/05 02:53:18;;;;;;;12.35;10.88;;;;;;;8.33;99.87;98619.00;5009243;28;20050;-68
2022/04/05 02:55:43;;;;;;;12.55;10.45;;;;;;;8.33;99.99;98619.84;5007881;28;20034;-69
2022/04/05 02:58:08;;;;;;;14.65;10.50;;;;;;;8.37;99.91;98612.63;5009767;28;20040;-67
2022/04/05 03:00:35;;;;;;;16.85;11.57;;;;;;;8.38;100.00;98604.66;5009793;28;20508;-68
2022/04/05 03:03:00;;;;;;;13.23;10.68;;;;;;;8.38;99.36;98604.66;5009851;28;20037;-69
2022/04/05 03:05:26;;;;;;;15.43;12.43;;;;;;;8.40;99.27;98606.41;5010060;28;20034;-67
2022/04/05 03:07:51;;;;;;;14.30;12.38;;;;;;;8.42;99.42;98617.63;5010223;28;20045;-68
2022/04/05 03:10:16;;;;;;;16.60;12.82;;;;;;;8.43;99.21;98617.53;5009763;28;20030;-67
2022/04/05 03:12:42;;;;;;;14.93;13.18;;;;;;;8.44;99.39;98618.38;5009555;28;20504;-68
2022/04/05 03:15:09;;;;;;;17.52;14.63;;;;;;;8.47;99.81;98615.59;5010393;28;20038;-68
2022/04/05 03:17:40;;;;;;;16.02;13.70;;;;;;;8.45;100.00;98622.72;5009886;28;20064;-67
2022/04/05 03:20:06;;;;;;;15.25;12.60;;;;;;;8.44;100.00;98619.25;5009842;28;20437;-68
2022/04/05 03:22:31;;;;;;;17.15;13.98;;;;;;;8.46;99.90;98598.97;5009485;28;21468;-68
2022/04/05 03:24:56;;;;;;;16.15;13.40;;;;;;;8.48;99.82;98602.34;5009958;28;20489;-68
2022/04/05 03:27:22;;;;;;;16.95;13.10;;;;;;;8.50;99.92;98604.91;5009582;28;20077;-67
2022/04/05 03:29:47;;;;;;;15.95;14.00;;;;;;;8.48;99.67;98615.50;5009772;28;20041;-68
2022/04/05 03:32:13;;;;;;;17.40;14.02;;;;;;;8.53;99.91;98615.22;5009253;28;20038;-68
2022/04/05 03:34:39;;;;;;;13.80;12.40;;;;;;;8.57;100.00;98600.97;5010408;28;20066;-68
2022/04/05 03:37:05;;;;;;;16.92;13.05;;;;;;;8.57;99.29;98604.44;5010138;28;20378;-68
2022/04/05 03:39:30;;;;;;;15.85;13.35;;;;;;;8.58;99.70;98602.66;5009733;28;20045;-68
2022/04/05 03:41:57;;;;;;;16.73;12.85;;;;;;;8.57;99.75;98614.94;5008867;28;20393;-68
2022/04/05 03:44:23;;;;;;;14.55;12.20;;;;;;;8.59;99.70;98614.88;5010822;28;20041;-68
2022/04/05 03:46:48;;;;;;;15.35;12.90;;;;;;;8.63;99.68;98612.88;5010472;28;20046;-68
2022/04/05 03:49:13;;;;;;;16.35;13.35;;;;;;;8.66;100.00;98607.44;5014104;28;20038;-68
2022/04/05 03:51:39;;;;;;;16.10;12.05;;;;;;;8.67;99.67;98606.53;5014076;28;20061;-68
2022/04/05 03:54:04;;;;;;;15.88;12.10;;;;;;;8.70;100.00;98604.53;5014229;28;20033;-68
2022/04/05 03:56:29;;;;;;;15.48;11.50;;;;;;;8.72;99.47;98601.84;5013981;28;20501;-67
2022/04/05 03:58:55;;;;;;;14.73;11.90;;;;;;;8.71;99.70;98597.50;5013208;28;20850;-68
2022/04/05 04:01:20;;;;;;;14.77;10.98;;;;;;;8.72;100.00;98596.56;5013125;28;20393;-66
2022/04/05 04:03:45;;;;;;;12.43;10.80;;;;;;;8.74;99.79;98613.09;5012446;28;20038;-67
2022/04/05 04:06:11;;;;;;;12.25;10.60;;;;;;;8.74;99.49;98603.44;5013911;28;20410;-67
2022/04/05 04:08:36;;;;;;;14.57;12.93;;;;;;;8.76;99.32;98603.31;5013543;28;20041;-66
2022/04/05 04:11:02;;;;;;;15.55;12.45;;;;;;;8.77;99.29;98602.41;5012845;28;20041;-67
2022/04/05 04:13:28;;;;;;;14.30;12.15;;;;;;;8.79;98.93;98609.25;5013297;28;20044;-67
2022/04/05 04:15:54;;;;;;;18.23;13.07;;;;;;;8.80;99.65;98603.03;5013500;28;20448;-67
2022/04/05 04:18:19;;;;;;;16.88;13.27;;;;;;;8.81;99.68;98610.00;5013342;28;20033;-66
2022/04/05 04:20:45;;;;;;;13.15;11.55;;;;;;;8.84;99.11;98605.50;5012696;28;20132;-68
2022/04/05 04:23:11;;;;;;;15.77;13.00;;;;;;;8.85;98.74;98609.81;5013020;28;20058;-67
2022/04/05 04:25:40;;;;;;;15.60;12.75;;;;;;;8.86;98.65;98616.75;5012352;28;20409;-67
2022/04/05 04:28:06;;;;;;;15.90;14.18;;;;;;;8.87;98.92;98600.88;5012898;28;20057;-67
2022/04/05 04:30:32;;;;;;;16.38;13.13;;;;;;;8.85;98.43;98601.91;5012555;28;20037;-67
2022/04/05 04:32:59;;;;;;;18.00;13.70;;;;;;;8.87;98.55;98602.69;5012624;28;20022;-67
2022/04/05 04:35:24;;;;;;;18.17;14.05;;;;;;;8.88;98.66;98607.81;5011532;28;20576;-68
2022/04/05 04:37:50;;;;;;;18.70;14.65;;;;;;;8.89;98.54;98611.31;5012608;28;20129;-67
2022/04/05 04:40:15;;;;;;;17.83;13.50;;;;;;;8.89;98.44;98614.78;5012240;28;20036;-67
2022/04/05 04:42:41;;;;;;;17.67;13.07;;;;;;;8.89;98.61;98616.56;5012623;28;20481;-67
2022/04/05 04:45:08;;;;;;;14.57;12.63;;;;;;;8.91;98.87;98614.66;5012631;28;20046;-67
2022/04/05 04:47:33;;;;;;;17.25;13.07;;;;;;;8.93;98.71;98618.06;5012566;28;20586;-67
2022/04/05 04:49:58;;;;;;;16.67;12.68;;;;;;;8.93;99.01;98618.06;5011394;28;20128;-67
2022/04/05 04:52:24;;;;;;;20.48;14.23;;;;;;;8.95;98.67;98618.81;5013200;28;20224;-67
2022/04/05 04:54:51;;;;;;;16.33;13.32;;;;;;;8.94;98.40;98617.97;5010354;28;20072;-67
2022/04/05 04:57:16;;;;;;;16.77;13.55;;;;;;;8.95;98.52;98613.56;5011073;28;20103;-68
2022/04/05 04:59:41;;;;;;;19.67;15.68;;;;;;;8.96;98.39;98624.00;5012066;28;20038;-67
2022/04/05 05:02:07;;;;;;;18.90;13.68;;;;;;;8.96;98.39;98625.78;5011741;28;20030;-67
2022/04/05 05:04:32;;;;;;;15.70;12.85;;;;;;;8.99;98.42;98625.59;5012430;28;20041;-67
2022/04/05 05:06:58;;;;;;;17.60;13.00;;;;;;;9.00;98.16;98620.22;5012331;28;20045;-66
2022/04/05 05:09:23;;;;;;;18.55;13.00;;;;;;;9.01;98.61;98628.97;5011811;28;20060;-67
2022/04/05 05:11:48;;;;;;;16.63;14.18;;;;;;;8.99;98.00;98628.22;5011917;28;20033;-66
2022/04/05 05:14:13;;;;;;;17.00;13.63;;;;;;;9.00;98.50;98624.63;5012441;28;20038;-68
2022/04/05 05:16:39;;;;;;;16.65;13.65;;;;;;;9.01;98.70;98628.97;5009313;28;20049;-67
2022/04/05 05:19:07;;;;;;;20.88;15.48;;;;;;;9.03;98.84;98627.06;5006419;28;20058;-67
2022/04/05 05:21:32;;;;;;;20.08;12.30;;;;;;;9.03;98.14;98637.59;5011544;28;20038;-67
2022/04/05 05:23:58;;;;;;;17.80;12.70;;;;;;;9.05;97.94;98624.34;5009752;28;20041;-67
2022/04/05 05:26:23;;;;;;;15.23;12.93;;;;;;;9.07;98.16;98635.63;5012567;28;20049;-66
2022/04/05 05:28:49;;;;;;;15.27;12.65;;;;;;;9.07;98.34;98635.63;5012598;28;20033;-66
2022/04/05 05:31:14;;;;;;;20.98;15.65;;;;;;;9.08;98.12;98639.94;5011850;28;20464;-66
2022/04/05 05:33:39;;;;;;;15.25;11.52;;;;;;;9.08;98.09;98638.16;5012601;28;20575;-67
2022/04/05 05:36:05;;;;;;;15.43;13.20;;;;;;;9.07;98.52;98633.84;5012045;28;20057;-67
2022/04/05 05:38:30;;;;;;;14.73;12.43;;;;;;;9.07;98.32;98633.00;5011666;28;20111;-67
2022/04/05 05:40:56;;;;;;;16.63;12.88;;;;;;;9.07;98.74;98636.47;5011806;28;20041;-66
2022/04/05 05:43:23;;;;;;;16.52;12.93;;;;;;;9.09;98.41;98636.38;5012104;28;20088;-66
2022/04/05 05:45:49;;;;;;;19.65;14.20;;;;;;;9.10;98.55;98627.53;5012128;28;20033;-66
2022/04/05 05:48:14;;;;;;;18.20;14.93;;;;;;;9.10;98.18;98624.91;5013874;28;20034;-66
2022/04/05 05:50:40;;;;;;;14.93;11.73;;;;;;;9.12;98.77;98634.38;5015869;28;20069;-68
2022/04/05 05:53:17;;;;;;;18.10;14.02;;;;;;;9.11;98.18;98632.72;5014437;28;20093;-66
2022/04/05 05:55:44;;;;;;;16.15;13.27;;;;;;;9.10;98.76;98633.63;5013808;28;20057;-66
2022/04/05 05:58:10;;;;;;;12.98;11.23;;;;;;;9.11;98.85;98640.59;5013414;28;20092;-66
2022/04/05 06:00:36;;;;;;;14.15;11.65;;;;;;;9.14;98.80;98642.19;5016162;28;20033;-64
2022/04/05 06:03:02;;;;;;;15.90;12.05;;;;;;;9.11;98.83;98645.88;5013849;28;20033;-66
2022/04/05 06:05:28;;;;;;;12.45;11.13;;;;;;;9.12;98.68;98639.66;4994215;28;20023;-65
2022/04/05 06:07:54;;;;;;;15.57;12.32;;;;;;;9.14;99.18;98647.47;4993670;28;20093;-66
2022/04/05 06:10:20;;;;;;;13.73;12.05;;;;;;;9.15;99.24;98651.75;4992997;28;20031;-66
2022/04/05 06:12:51;;;;;;;17.83;13.18;;;;;;;9.16;98.63;98648.22;5005945;28;20034;-66
2022/04/05 06:15:18;;;;;;;16.60;12.98;;;;;;;9.15;98.71;98647.34;5006580;28;20449;-67
2022/04/05 06:17:48;;;;;;;13.38;11.98;;;;;;;9.17;99.02;98652.53;5010941;28;20079;-66
2022/04/05 06:20:16;;;;;;;18.05;13.35;;;;;;;9.15;98.99;98655.22;5010053;28;20050;-66
2022/04/05 06:22:42;;;;;;;14.05;11.25;;;;;;;9.14;99.41;98648.28;5010951;28;20034;-66
2022/04/05 06:25:09;;;;;;;14.13;12.07;;;;;;;9.16;99.83;98650.84;5010788;28;20041;-66
2022/04/05 06:27:35;;;;;;;19.55;14.43;;;;;;;9.17;99.37;98649.88;5008754;28;20561;-67
2022/04/05 06:30:00;;;;;;;18.77;14.70;;;;;;;9.17;99.76;98650.72;5010403;28;20068;-66
2022/04/05 06:32:26;;;;;;;19.08;13.27;;;;;;;9.19;99.23;98663.78;5008822;28;20493;-66
2022/04/05 06:34:51;;;;;;;20.98;15.13;;;;;;;9.22;98.57;98658.34;5010502;28;20049;-66
2022/04/05 06:37:16;;;;;;;23.08;16.65;;;;;;;9.24;98.43;98665.19;5008968;28;20030;-66
2022/04/05 06:39:42;;;;;;;18.17;13.32;;;;;;;9.30;98.42;98665.75;4993031;28;20147;-67
2022/04/05 06:42:07;;;;;;;14.98;13.10;;;;;;;9.33;98.48;98673.44;5008047;28;20116;-65
2022/04/05 06:44:32;;;;;;;17.73;14.80;;;;;;;9.33;98.55;98674.31;5009865;28;20068;-66
2022/04/05 06:46:58;;;;;;;17.45;12.60;;;;;;;9.33;97.96;98676.94;5010070;28;20177;-66
2022/04/05 06:49:23;;;;;;;18.00;13.55;;;;;;;9.36;97.38;98675.91;5008627;28;20042;-66
2022/04/05 06:51:48;;;;;;;15.27;11.98;;;;;;;9.37;97.27;98674.94;4998881;28;20121;-66
2022/04/05 06:54:14;;;;;;;19.15;13.50;;;;;;;9.39;97.45;98667.81;5026798;28;20092;-66
2022/04/05 06:56:39;;;;;;;16.00;13.10;;;;;;;9.41;97.08;98672.03;5010359;28;20065;-66
2022/04/05 06:59:04;;;;;;;15.88;12.60;;;;;;;9.44;97.58;98674.47;5009196;28;20037;-66
2022/04/05 07:01:32;;;;;;;15.43;12.02;;;;;;;9.44;96.85;98678.91;5006989;28;20436;-65
2022/04/05 07:03:58;;;;;;;13.85;11.40;;;;;;;9.44;96.80;98682.34;5010104;28;20478;-66
2022/04/05 07:06:23;;;;;;;13.90;11.48;;;;;;;9.45;97.36;98683.19;5009604;28;20092;-66
2022/04/05 07:08:50;;;;;;;18.20;12.07;;;;;;;9.45;97.20;98678.81;5009876;28;20057;-65
2022/04/05 07:11:15;;;;;;;16.20;12.32;;;;;;;9.49;96.97;98687.34;5009350;28;20379;-65
2022/04/05 07:13:41;;;;;;;16.10;13.15;;;;;;;9.53;96.41;98695.91;5010225;28;20061;-67
2022/04/05 07:16:06;;;;;;;14.52;12.35;;;;;;;9.55;96.10;98694.88;5009906;28;20069;-67
2022/04/05 07:18:32;;;;;;;13.25;11.32;;;;;;;9.58;95.93;98697.28;5008313;28;20488;-68
2022/04/05 07:20:57;;;;;;;20.80;12.77;;;;;;;9.56;96.12;98686.00;5009237;28;20409;-68
2022/04/05 07:23:22;;;;;;;15.15;12.15;;;;;;;9.58;95.78;98694.66;4988271;28;20038;-68
2022/04/05 07:25:48;;;;;;;14.77;11.45;;;;;;;9.60;96.02;98687.53;4986818;28;20045;-66
2022/04/05 07:28:13;;;;;;;16.92;13.32;;;;;;;9.64;96.00;98693.44;4989256;28;20125;-67
2022/04/05 07:30:38;;;;;;;16.42;12.98;;;;;;;9.66;95.93;98687.13;5004594;28;20038;-67
2022/04/05 07:33:04;;;;;;;23.20;13.95;;;;;;;9.70;95.10;98700.06;4997925;28;20088;-71
2022/04/05 07:35:29;;;;;;;20.35;13.65;;;;;;;9.70;95.23;98686.91;5004495;28;20042;-71
2022/04/05 07:37:55;;;;;;;15.18;12.15;;;;;;;9.72;94.74;98696.44;5002965;28;20038;-69
2022/04/05 07:40:21;;;;;;;14.57;12.88;;;;;;;9.72;94.64;98685.91;5000939;28;20041;-70
2022/04/05 07:42:47;;;;;;;20.10;14.63;;;;;;;9.73;95.19;98689.38;5004503;28;20137;-70
2022/04/05 07:45:14;;;;;;;16.95;13.50;;;;;;;9.74;95.07;98698.94;5005291;28;20037;-69
2022/04/05 07:47:41;;;;;;;14.80;12.40;;;;;;;9.76;94.92;98699.72;5004797;28;20033;-69
2022/04/05 07:50:08;;;;;;;17.90;13.73;;;;;;;9.76;95.40;98699.72;5009084;28;20405;-68
2022/04/05 07:52:33;;;;;;;17.20;12.63;;;;;;;9.73;95.13;98700.75;5008353;28;20034;-68
2022/04/05 07:54:59;;;;;;;14.45;12.18;;;;;;;9.75;95.11;98698.88;5008553;28;20811;-68
2022/04/05 07:57:25;;;;;;;15.05;13.45;;;;;;;9.77;94.65;98696.13;5007766;28;20050;-67
2022/04/05 07:59:50;;;;;;;19.75;12.93;;;;;;;9.81;94.36;98700.25;5004690;28;20481;-68
2022/04/05 08:02:15;;;;;;;19.08;14.55;;;;;;;9.83;94.15;98701.00;4999499;28;20038;-68
2022/04/05 08:04:41;;;;;;;15.90;13.77;;;;;;;9.87;93.56;98694.63;4989195;28;20042;-67
2022/04/05 08:07:06;;;;;;;16.65;13.40;;;;;;;9.92;93.58;98700.44;4990124;28;20442;-68
2022/04/05 08:09:32;;;;;;;13.10;11.80;;;;;;;10.00;92.85;98697.31;4981532;28;20046;-69
2022/04/05 08:11:57;;;;;;;14.15;12.18;;;;;;;10.03;91.70;98697.09;4995989;28;20034;-69
2022/04/05 08:14:27;;;;;;;18.88;12.15;;;;;;;10.08;91.76;98695.84;5009386;28;20500;-67
2022/04/05 08:16:55;;;;;;;13.93;12.02;;;;;;;10.15;91.43;98695.47;5008618;28;20121;-68
2022/04/05 08:19:20;;;;;;;14.13;11.82;;;;;;;10.20;91.41;98698.66;5008351;28;20088;-69
2022/04/05 08:21:45;;;;;;;14.43;11.43;;;;;;;10.24;90.87;98703.63;5007816;28;20042;-69
2022/04/05 08:24:11;;;;;;;14.02;10.43;;;;;;;10.26;90.38;98707.00;5009101;28;20104;-68
2022/04/05 08:26:36;;;;;;;17.20;11.90;;;;;;;10.30;89.47;98702.41;5009027;28;20034;-68
2022/04/05 08:29:01;;;;;;;12.18;10.40;;;;;;;10.38;89.28;98702.72;5009532;28;20444;-68
2022/04/05 08:31:27;;;;;;;12.07;10.57;;;;;;;10.43;89.14;98703.25;5007738;28;20042;-67
2022/04/05 08:33:53;;;;;;;13.93;10.70;;;;;;;10.43;89.36;98713.81;5009652;28;20121;-68
2022/04/05 08:36:18;;;;;;;13.95;11.73;;;;;;;10.43;89.16;98702.44;5012690;28;20030;-70
2022/04/05 08:38:44;;;;;;;15.07;11.63;;;;;;;10.44;89.36;98707.59;5012457;28;20030;-68
2022/04/05 08:41:10;;;;;;;15.63;11.77;;;;;;;10.49;88.99;98707.31;5012361;28;20045;-70
2022/04/05 08:43:37;;;;;;;14.93;11.25;;;;;;;10.47;89.55;98712.66;5011959;28;20041;-67
2022/04/05 08:46:05;;;;;;;13.90;10.80;;;;;;;10.46;89.41;98710.13;5011390;28;20033;-68
2022/04/05 08:48:31;;;;;;;12.95;11.35;;;;;;;10.40;89.56;98711.38;5011989;28;20045;-69
2022/04/05 08:50:58;;;;;;;11.93;10.73;;;;;;;10.36;90.44;98711.69;5011941;28;20045;-68
2022/04/05 08:53:24;;;;;;;13.95;12.02;;;;;;;10.32;90.44;98709.25;5011500;28;20045;-67
2022/04/05 08:55:51;;;;;;;14.93;12.13;;;;;;;10.25;91.12;98713.19;5011582;28;20113;-66
2022/04/05 08:58:17;;;;;;;15.07;11.18;;;;;;;10.24;91.13;98714.16;5012050;28;20038;-67
2022/04/05 09:00:43;;;;;;;22.27;12.25;;;;;;;10.21;91.04;98716.97;5013434;28;20525;-67
2022/04/05 09:03:08;;;;;;;15.02;12.88;;;;;;;10.20;91.59;98720.56;5012258;28;20057;-67
2022/04/05 09:05:35;;;;;;;14.52;10.85;;;;;;;10.21;91.98;98722.22;5010702;28;20061;-67
2022/04/05 09:08:18;;;;;;;14.05;11.68;;;;;;;10.21;91.70;98716.97;5003047;28;20092;-66
2022/04/05 09:10:47;;;;;;;16.23;11.80;;;;;;;10.20;92.26;98723.19;5011517;28;20061;-68
2022/04/05 09:13:17;;;;;;;13.43;11.95;;;;;;;10.20;92.41;98722.34;5011868;28;20095;-67
2022/04/05 09:15:46;;;;;;;17.95;11.02;;;;;;;10.24;92.61;98722.06;5012092;28;20511;-66
2022/04/05 09:18:11;;;;;;;13.80;11.48;;;;;;;10.29;92.08;98724.44;5011756;28;20038;-67
2022/04/05 09:20:48;;;;;;;11.07;9.07;;;;;;;10.33;91.32;98725.91;5011778;28;20037;-68
2022/04/05 09:23:28;;;;;;;11.95;10.48;;;;;;;10.33;90.93;98728.53;5011389;28;20124;-68
2022/04/05 09:26:04;;;;;;;13.55;9.55;;;;;;;10.34;90.90;98726.72;5012941;28;20612;-67
2022/04/05 09:28:32;;;;;;;10.52;9.50;;;;;;;10.37;91.49;98727.41;5011303;28;20044;-69
2022/04/05 09:30:59;;;;;;;13.70;10.43;;;;;;;10.42;91.29;98729.72;5012252;28;20030;-68
2022/04/05 09:33:28;;;;;;;11.15;9.13;;;;;;;10.46;90.43;98726.81;5013434;28;20049;-67
2022/04/05 09:36:11;;;;;;;11.25;9.25;;;;;;;10.48;89.96;98734.59;5015051;28;20084;-69
2022/04/05 09:38:38;;;;;;;12.43;9.35;;;;;;;10.46;90.65;98734.72;5016099;28;20030;-66
2022/04/05 09:41:14;;;;;;;12.13;10.30;;;;;;;10.38;89.85;98734.34;5017997;28;20034;-67
2022/04/05 09:43:57;;;;;;;13.65;8.88;;;;;;;10.38;90.86;98731.72;5015551;28;20087;-68
2022/04/05 09:46:24;;;;;;;11.45;10.10;;;;;;;10.39;90.56;98743.13;5008224;28;20453;-69
2022/04/05 09:49:23;;;;;;;16.88;9.32;;;;;;;10.42;90.00;98733.22;5009119;28;20030;-69
2022/04/05 09:51:48;;;;;;;14.93;10.75;;;;;;;10.52;89.92;98747.47;5011978;28;20042;-69
2022/04/05 09:54:27;;;;;;;9.43;8.32;;;;;;;10.63;89.20;98741.50;5012745;28;20104;-68
2022/04/05 09:57:00;;;;;;;11.40;9.73;;;;;;;10.76;88.63;98745.97;5012126;28;20057;-69
2022/04/05 09:59:36;;;;;;;10.38;9.23;;;;;;;10.85;88.36;98743.53;5011734;28;20034;-69
2022/04/05 10:02:14;;;;;;;12.38;9.13;;;;;;;10.92;88.24;98739.53;5011621;28;20037;-68
2022/04/05 10:05:00;;;;;;;13.43;8.93;;;;;;;10.87;87.14;98735.53;5010757;28;20056;-68
2022/04/05 10:07:32;;;;;;;19.20;13.13;;;;;;;10.85;87.60;98732.13;5011685;28;20042;-68
2022/04/05 10:10:00;;;;;;;14.93;10.40;;;;;;;10.84;88.16;98741.00;5009952;28;20038;-67
2022/04/05 10:12:27;;;;;;;15.45;10.23;;;;;;;10.79;88.19;98743.94;5010040;28;20099;-67
2022/04/05 10:14:53;;;;;;;13.07;9.38;;;;;;;10.76;88.64;98749.44;5011086;28;20445;-69
2022/04/05 10:17:20;;;;;;;11.00;9.88;;;;;;;10.73;89.34;98745.22;5010822;28;20080;-68
2022/04/05 10:19:50;;;;;;;11.30;9.63;;;;;;;10.69;89.27;98751.63;5010590;28;20041;-68
2022/04/05 10:22:18;;;;;;;10.10;8.80;;;;;;;10.68;89.46;98749.06;5008409;28;20126;-68
2022/04/05 10:24:45;;;;;;;11.63;9.00;;;;;;;10.67;89.95;98750.88;5011161;28;20542;-67
2022/04/05 10:27:11;;;;;;;10.15;8.38;;;;;;;10.69;90.06;98751.63;5011408;28;20049;-67
2022/04/05 10:29:37;;;;;;;9.85;8.82;;;;;;;10.71;90.29;98752.38;5009600;28;20049;-68
2022/04/05 10:32:31;;;;;;;12.25;9.45;;;;;;;10.79;90.45;98748.38;5011562;28;20041;-69
2022/04/05 10:35:05;;;;;;;11.80;8.38;;;;;;;10.79;90.10;98746.59;5010814;28;20053;-68
2022/04/05 10:37:34;;;;;;;9.85;7.30;;;;;;;10.75;89.37;98742.44;5012005;28;20486;-68
2022/04/05 10:40:00;;;;;;;10.68;8.18;;;;;;;10.74;89.45;98746.06;5013592;28;20406;-68
2022/04/05 10:42:36;;;;;;;10.35;9.25;;;;;;;10.73;89.60;98745.22;5013308;28;20045;-67
2022/04/05 10:45:41;;;;;;;12.38;8.80;;;;;;;10.73;89.47;98755.75;5011864;28;20041;-67
2022/04/05 10:48:13;;;;;;;9.98;7.43;;;;;;;10.75;89.67;98750.38;5010626;28;20497;-69
2022/04/05 10:51:09;;;;;;;18.40;7.85;;;;;;;10.82;90.11;98743.75;5011080;28;20521;-67
2022/04/05 10:53:37;;;;;;;8.10;7.28;;;;;;;10.87;90.08;98753.97;5002715;28;20532;-69
2022/04/05 10:56:11;;;;;;;8.52;7.72;;;;;;;10.86;89.43;98739.97;5010032;28;20437;-67
2022/04/05 10:58:46;;;;;;;8.93;8.02;;;;;;;10.92;89.07;98742.16;5010104;28;20501;-68
2022/04/05 11:01:45;;;;;;;12.25;8.15;;;;;;;11.02;88.26;98742.38;5009627;28;20393;-68
2022/04/05 11:04:20;;;;;;;11.55;6.50;;;;;;;11.03;87.61;98745.91;5009866;28;20500;-69
2022/04/05 11:07:05;;;;;;;11.43;8.33;;;;;;;11.03;86.83;98732.72;5009786;28;20091;-68
2022/04/05 11:09:54;;;;;;;10.40;6.38;;;;;;;11.01;87.03;98734.59;5010064;28;20322;-68
2022/04/05 11:12:24;;;;;;;9.52;7.10;;;;;;;11.05;87.56;98741.34;4999971;28;20651;-68
2022/04/05 11:14:58;;;;;;;12.90;8.35;;;;;;;10.99;87.67;98739.97;4990482;28;20061;-67
2022/04/05 11:17:26;;;;;;;7.57;6.75;;;;;;;10.97;88.46;98728.69;4990031;28;20053;-68
2022/04/05 11:19:57;;;;;;;13.35;7.13;;;;;;;10.94;87.84;98723.63;5009393;28;20053;-68
2022/04/05 11:22:23;;;;;;;8.88;7.07;;;;;;;10.89;88.31;98733.63;5009426;28;20120;-68
2022/04/05 11:25:08;;;;;;;7.55;6.75;;;;;;;10.82;88.72;98729.72;5010746;28;20118;-68
2022/04/05 11:27:47;;;;;;;6.60;5.93;;;;;;;10.80;89.32;98740.34;5011058;28;20068;-68